Aeroporto :
LOGIN :

Iscrizione | Disclaimer

   EN    FR    IT 

 










Sommario :    VFR   VFR Marginale   IFR   IFR Intensivo   IFR Molto Intensivo
Visibilità : 
Base nubi : 
>= 8 km
>= 3000ft
5 / 8 km
1000 / 3000 ft
1500m / 5 km
500 / 1000 ft
800 / 1500m
200 / 500 ft
< 800m
< 200 ft
Simboli :   Temporali  Nebbia  Neve Forte  Precipitazioni Forti  Vento > 20 kt
SIGMETs :   Varie  Temporali  Ghiacco  Turbolenza  Onda orograficha  Ceneri Vulcaniche






- Altitudine del aeroporto : 333 ft


LIPL - Ghedi Brescia (Mil)

ULTIMO METAR :
  • 251555Z 26003KT 2200 BR SCT030 BKN070 11/09 Q1005 RMK BKN VIS MIN 2200 WIND THR31 24003KT WIND THR13 24004KT YLO

METARs OBSOLETI :
  • 251455Z 22003KT 2500 BR SCT030 BKN070 11/09 Q1006 RMK BKN VIS MIN 2500 WIND THR31 21006KT WIND THR13 22003KT YLO
  • 251355Z 22003KT 2500 BR SCT030 BKN070 12/08 Q1007 RMK BKN VIS MIN 2500 WIND THR31 22004KT WIND THR13 24003KT YLO

TAF TAF LIPL
Valido dal 25 a 15 ore il 26 a 00 ore UTC


251400Z 2515/2524 VRB03KT 2500 BR SCT035 SCT060
BECMG 2517/2519 1400 BR SCT025 SCT050



MetMap, La meteo Aeronautica in un colpo d'occhio ! - Copyright ORBIFLY Dicembre 2007 - Disclaimer

ORBIFLY MET'MAP TEAM :

Programmazione e sviluppo : Alexandra Zaïnal
Concezione : Baudouin d'Aumeries
Aiuto per la programmazione : Marc-Olivier Méhu
Supporto tecnico e logistico : Manuel Goepfert
Aiuto per la traduzione : Arnaldo La Scala

Contatto : metmap@orbifly.com




FONTI E CREDITI :

   NOAA